Flight Track Log - Related Links

Times and Time Zones

All times are in EDT time to prevent confusion due to time zone crossing. See the N8092E flight status page for this flight to view local times or setup timezone preferences in your user account.

Time Position Orientation Groundspeed Altitude Reporting Facility
EDT Latitude Longitude Course Direction KTS MPH feet Rate Location/Type
Thu 01:18:47 PM 39.2333 -84.8333 218° Southwest 103 119 3,500  Level Cincinnati TRACON
Thu 01:19:47 PM 39.2167 -84.8500 218° Southwest 102 117 3,600  Climbing Cincinnati TRACON
Thu 01:20:41 PM 39.2000 -84.8667 218° Southwest 105 121 3,500 -53 Descending Cincinnati TRACON
Thu 01:21:41 PM 39.1667 -84.9000 218° Southwest 105 121 3,500  Level Cincinnati TRACON
Thu 01:22:35 PM 39.1500 -84.9167 218° Southwest 104 120 3,500  Level Cincinnati TRACON
Thu 01:23:35 PM 39.1333 -84.9333 218° Southwest 106 122 3,500 -50 Level Cincinnati TRACON
Thu 01:24:35 PM 39.1000 -84.9667 218° Southwest 106 122 3,400 -50 Descending Cincinnati TRACON
Thu 01:25:36 PM 39.0833 -84.9833 218° Southwest 105 121 3,400 47 Level Cincinnati TRACON
Thu 01:26:42 PM 39.0500 -85.0167 218° Southwest 106 122 3,500  Climbing Cincinnati TRACON
Thu 01:27:42 PM 39.0333 -85.0333 237° Southwest 106 122 3,400  Descending Cincinnati TRACON
Thu 01:28:42 PM 39.0167 -85.0667 201° Southwest 152 175 3,500  Climbing Cincinnati TRACON
Thu 01:29:42 PM 38.9833 -85.0833 237° Southwest 115 132 3,400  Descending Cincinnati TRACON
Thu 01:30:42 PM 38.9667 -85.1167 218° Southwest 104 120 3,500 50 Climbing Cincinnati TRACON
Thu 01:31:42 PM 38.9500 -85.1333 223° Southwest 103 119 3,500 -10 Level Cincinnati TRACON
Thu 01:41:01 PM 38.7508 -85.3736 254° West 109 125 3,400 -10 Descending FAA TRACON SMA TRACON (SMA)
Thu 01:41:41 PM 38.7450 -85.4000 252° West 107 123 3,400  Level FAA TRACON SMA TRACON (SMA)
Thu 01:42:21 PM 38.7392 -85.4231 249° West 113 130 3,400  Level FAA TRACON SMA TRACON (SMA)
Thu 01:43:02 PM 38.7322 -85.4467 254° West 104 120 3,400  Level FAA TRACON SMA TRACON (SMA)
Thu 01:43:40 PM 38.7269 -85.4703 248° West 118 136 3,400 122 Level FAA TRACON SMA TRACON (SMA)
Thu 01:44:40 PM 38.7150 -85.5083 248° West 109 125 3,600 120 Climbing FAA TRACON SMA TRACON (SMA)
Thu 01:45:20 PM 38.7083 -85.5300 247° West 109 125 3,600 -75 Level FAA TRACON SMA TRACON (SMA)
Thu 01:46:00 PM 38.7006 -85.5533 248° West 105 121 3,500 -74 Descending FAA TRACON SMA TRACON (SMA)
Thu 01:46:41 PM 38.6925 -85.5792 249° West 111 128 3,500  Level FAA TRACON SMA TRACON (SMA)
Thu 01:47:20 PM 38.6858 -85.6017 248° West 109 125 3,500  Level FAA TRACON SMA TRACON (SMA)
Thu 01:48:01 PM 38.6786 -85.6250 248° West 106 122 3,500  Level FAA TRACON SMA TRACON (SMA)
Thu 01:49:21 PM 38.6644 -85.6708 248° West 106 122 3,500  Level FAA TRACON SMA TRACON (SMA)
Thu 01:50:01 PM 38.6564 -85.6958 250° West 107 123 3,500  Level FAA TRACON SMA TRACON (SMA)
Thu 01:50:41 PM 38.6492 -85.7208 245° Southwest 110 127 3,500 75 Level FAA TRACON SMA TRACON (SMA)
Thu 01:51:21 PM 38.6422 -85.7403 249° West 103 119 3,600  Climbing FAA TRACON SMA TRACON (SMA)
Thu 01:52:00 PM 38.6347 -85.7647 247° West 105 121 3,500  Descending FAA TRACON SMA TRACON (SMA)
Thu 01:52:41 PM 38.6269 -85.7883 247° West 104 120 3,600  Climbing FAA TRACON SMA TRACON (SMA)
Thu 01:53:21 PM 38.6197 -85.8106 249° West 108 124 3,500 -75 Descending FAA TRACON SMA TRACON (SMA)
Thu 01:54:01 PM 38.6122 -85.8356 247° West 109 125 3,500  Level FAA TRACON SMA TRACON (SMA)
Thu 01:54:41 PM 38.6047 -85.8583 246° West 103 119 3,500  Level FAA TRACON SMA TRACON (SMA)
Thu 01:55:21 PM 38.5975 -85.8786 247° West 100 115 3,500 75 Level FAA TRACON SMA TRACON (SMA)
Thu 01:56:01 PM 38.5903 -85.9008 247° West 99 114 3,600  Climbing FAA TRACON SMA TRACON (SMA)
Thu 01:56:42 PM 38.5828 -85.9239 249° West 100 115 3,500 -75 Descending FAA TRACON SMA TRACON (SMA)
Thu 01:57:21 PM 38.5764 -85.9447 247° West 101 116 3,500  Level FAA TRACON SMA TRACON (SMA)
Thu 01:58:01 PM 38.5689 -85.9672 246° West 100 115 3,500 75 Level FAA TRACON SMA TRACON (SMA)
Thu 01:58:41 PM 38.5606 -85.9917 248° West 108 124 3,600 75 Climbing FAA TRACON SMA TRACON (SMA)
Thu 01:59:21 PM 38.5536 -86.0136 248° West 110 127 3,600  Level FAA TRACON SMA TRACON (SMA)
Thu 02:00:01 PM 38.5464 -86.0369 229° Southwest 104 120 3,600 75 Level FAA TRACON SMA TRACON (SMA)
Thu 02:00:41 PM 38.5333 -86.0564 211° Southwest 107 123 3,700 72 Climbing FAA TRACON SMA TRACON (SMA)
Thu 02:01:24 PM 38.5161 -86.0697 211° Southwest 104 120 3,700 -148 Level FAA TRACON SMA TRACON (SMA)
Thu 02:02:02 PM 38.5014 -86.0811 212° Southwest 103 119 3,500 -312 Descending FAA TRACON SMA TRACON (SMA)
Thu 02:02:41 PM 38.4847 -86.0944 211° Southwest 101 116 3,300 -228 Descending FAA TRACON SMA TRACON (SMA)
Thu 02:03:21 PM 38.4697 -86.1061 211° Southwest 105 121 3,200 -75 Descending FAA TRACON SMA TRACON (SMA)
Thu 02:04:01 PM 38.4500 -86.1214 213° Southwest 115 132 3,200 -75 Level FAA TRACON SMA TRACON (SMA)
Thu 02:04:41 PM 38.4333 -86.1353 212° Southwest 108 124 3,100 -76 Descending FAA TRACON SMA TRACON (SMA)
Thu 02:05:20 PM 38.4164 -86.1486 209° Southwest 112 129 3,100 -74 Level FAA TRACON SMA TRACON (SMA)
Thu 02:06:02 PM 38.3986 -86.1614 208° Southwest 108 124 3,000 -74 Descending FAA TRACON SMA TRACON (SMA)
Thu 02:06:41 PM 38.3806 -86.1736 208° Southwest 104 120 3,000  Level FAA TRACON SMA TRACON (SMA)
Thu 02:07:20 PM 38.3658 -86.1836 209° Southwest 99 114 3,000  Level FAA TRACON SMA TRACON (SMA)
Thu 02:08:01 PM 38.3486 -86.1956 209° Southwest 102 117 3,000 73 Level FAA TRACON SMA TRACON (SMA)
Thu 02:08:42 PM 38.3322 -86.2072 209° Southwest 97 112 3,100  Climbing FAA TRACON SMA TRACON (SMA)
Thu 02:09:22 PM 38.3172 -86.2178 210° Southwest 97 112 3,000  Descending FAA TRACON SMA TRACON (SMA)
Thu 02:10:02 PM 38.3000 -86.2303 208° Southwest 105 121 3,100 75 Climbing FAA TRACON SMA TRACON (SMA)
Thu 02:10:42 PM 38.2814 -86.2428 209° Southwest 107 123 3,100 75 Level FAA TRACON SMA TRACON (SMA)
Thu 02:11:22 PM 38.2667 -86.2533 207° Southwest 100 115 3,200 76 Climbing FAA TRACON SMA TRACON (SMA)
Thu 02:12:01 PM 38.2483 -86.2653 214° Southwest 104 120 3,200 -152 Level FAA TRACON SMA TRACON (SMA)
Thu 02:12:41 PM 38.2322 -86.2789 213° Southwest 102 117 3,000 -222 Descending FAA TRACON SMA TRACON (SMA)
Thu 02:13:22 PM 38.2175 -86.2911 211° Southwest 104 120 2,900 -148 Descending FAA TRACON SMA TRACON (SMA)
Thu 02:14:02 PM 38.2000 -86.3044 215° Southwest 107 123 2,800  Descending FAA TRACON SMA TRACON (SMA)
Thu 02:14:41 PM 38.1839 -86.3186 215° Southwest 105 121 2,900 75 Climbing FAA TRACON SMA TRACON (SMA)
Thu 02:15:22 PM 38.1706 -86.3306 212° Southwest 98 113 2,900  Level FAA TRACON SMA TRACON (SMA)
Thu 02:16:01 PM 38.1536 -86.3442 209° Southwest 101 116 2,900 76 Level FAA TRACON SMA TRACON (SMA)
Thu 02:16:41 PM 38.1364 -86.3564 208° Southwest 101 116 3,000 75 Climbing FAA TRACON SMA TRACON (SMA)
Thu 02:17:21 PM 38.1214 -86.3667 209° Southwest 103 119 3,000  Level FAA TRACON SMA TRACON (SMA)
Thu 02:18:01 PM 38.1031 -86.3794 207° Southwest 108 124 3,000 75 Level FAA TRACON SMA TRACON (SMA)
Thu 02:18:41 PM 38.0850 -86.3911 206° Southwest 105 121 3,100  Climbing FAA TRACON SMA TRACON (SMA)
Thu 02:19:22 PM 38.0689 -86.4011 207° Southwest 103 119 3,000 -75 Descending FAA TRACON SMA TRACON (SMA)
Thu 02:20:01 PM 38.0522 -86.4119 205° Southwest 101 116 3,000 -150 Level FAA TRACON SMA TRACON (SMA)
Thu 02:20:42 PM 38.0400 -86.4192 206° Southwest 102 117 2,800  Descending FAA TRACON SMA TRACON (SMA)
Thu 02:23:11 PM 37.9781 -86.4581 208° Southwest 100 115 3,000 86 Climbing Indianapolis Center
Thu 02:24:11 PM 37.9525 -86.4756 211° Southwest 100 115 3,100 100 Climbing Indianapolis Center
Thu 02:25:11 PM 37.9292 -86.4931 208° Southwest 100 115 3,200 50 Climbing Indianapolis Center
Thu 02:26:11 PM 37.9036 -86.5103 207° Southwest 106 122 3,200 50 Level Indianapolis Center
Thu 02:27:11 PM 37.8761 -86.5278 212° Southwest 111 128 3,300 50 Climbing Indianapolis Center
Thu 02:28:11 PM 37.8506 -86.5478 212° Southwest 111 128 3,300 -50 Level Indianapolis Center
Thu 02:29:11 PM 37.8250 -86.5678 212° Southwest 111 128 3,200  Descending Indianapolis Center
Thu 02:30:11 PM 37.7994 -86.5878 214° Southwest 111 128 3,300  Climbing Indianapolis Center
Thu 02:31:11 PM 37.7758 -86.6078 208° Southwest 111 128 3,200 -50 Descending Indianapolis Center
Thu 02:32:11 PM 37.7506 -86.6250 206° Southwest 111 128 3,200  Level Indianapolis Center
Thu 02:33:11 PM 37.7228 -86.6422 214° Southwest 111 128 3,200 -50 Level Indianapolis Center
Thu 02:34:11 PM 37.6994 -86.6622 205° Southwest 111 128 3,100 -100 Descending Indianapolis Center
Thu 02:35:11 PM 37.6697 -86.6794 212° Southwest 111 128 3,000  Descending Indianapolis Center
Thu 02:36:11 PM 37.6442 -86.6994 208° Southwest 111 128 3,100  Climbing Indianapolis Center
Thu 02:37:11 PM 37.6186 -86.7167 215° Southwest 111 128 3,000 -50 Descending Indianapolis Center
Thu 02:38:11 PM 37.5931 -86.7392 206° Southwest 116 133 3,000 -50 Level Indianapolis Center
Thu 02:39:11 PM 37.5656 -86.7564 215° Southwest 116 133 2,900 -50 Descending Indianapolis Center
Thu 02:40:11 PM 37.5397 -86.7789 211° Southwest 116 133 2,900 50 Level Indianapolis Center
Thu 02:41:11 PM 37.5142 -86.7986 213° Southwest 116 133 3,000  Climbing Indianapolis Center
Thu 02:42:11 PM 37.4928 -86.8161 215° Southwest 116 133 2,900  Descending Indianapolis Center
Thu 02:43:11 PM 37.4672 -86.8386 211° Southwest 116 133 3,000 50 Climbing Indianapolis Center
Thu 02:44:11 PM 37.4417 -86.8583 212° Southwest 116 133 3,000 50 Level Indianapolis Center
Thu 02:45:11 PM 37.4161 -86.8781 210° Southwest 116 133 3,100 121 Climbing Indianapolis Center
Thu 02:45:50 PM 37.3919 -86.8956 213° Southwest 110 127 3,200  Climbing Memphis Center
Thu 02:46:57 PM 37.3653 -86.9175 210° Southwest 109 125 3,100  Descending Memphis Center
Thu 02:47:57 PM 37.3389 -86.9369 212° Southwest 110 127 3,200  Climbing Memphis Center
Thu 02:48:58 PM 37.3144 -86.9564 210° Southwest 109 125 3,100 -99 Descending Memphis Center
Thu 02:49:58 PM 37.2878 -86.9756 207° Southwest 109 125 3,000 -50 Descending Memphis Center
Thu 02:50:59 PM 37.2611 -86.9925 204° Southwest 104 120 3,000 -49 Level Memphis Center
Thu 02:52:00 PM 37.2367 -87.0064 207° Southwest 104 120 2,900  Descending Memphis Center
Thu 02:53:00 PM 37.2100 -87.0233 206° Southwest 104 120 3,000 50 Climbing Memphis Center
Thu 02:54:01 PM 37.1833 -87.0400 205° Southwest 103 119 3,000 -49 Level Memphis Center
Thu 02:55:02 PM 37.1547 -87.0569 202° Southwest 105 121 2,900 -50 Descending Memphis Center
Thu 02:56:02 PM 37.1278 -87.0708 200° South 103 119 2,900 -50 Level Memphis Center
Thu 02:57:03 PM 37.1033 -87.0822 202° Southwest 103 119 2,800 -50 Descending Memphis Center
Thu 02:58:03 PM 37.0744 -87.0967 199° South 106 122 2,800  Level Memphis Center
Thu 02:59:04 PM 37.0475 -87.1081 189° South 105 121 2,800  Level Memphis Center
Thu 03:00:05 PM 37.0167 -87.1144 200° South 105 121 2,800  Level Memphis Center
Thu 03:01:05 PM 36.9919 -87.1258 197° South 102 117 2,800  Level Memphis Center
Thu 03:02:06 PM 36.9608 -87.1375 219° Southwest 105 121 2,800  Level Memphis Center
Thu 03:03:07 PM 36.9364 -87.1619 221° Southwest 105 121 2,800  Level Memphis Center
Thu 03:04:13 PM 36.9142 -87.1861 212° Southwest 103 119 2,800 47 Level Memphis Center
Thu 03:05:14 PM 36.8897 -87.2053 218° Southwest 102 117 2,900  Climbing Memphis Center
Thu 03:06:15 PM 36.8653 -87.2294 219° Southwest 104 120 2,800 -347 Descending Memphis Center
Thu 03:07:15 PM 36.8408 -87.2539 210° Southwest 110 127 2,200 -446 Descending Memphis Center
Thu 03:08:16 PM 36.8142 -87.2731 213° Southwest 114 131 1,900 -248 Descending Memphis Center
Thu 03:09:16 PM 36.7878 -87.2947 229° Southwest 115 132 1,700 -198 Descending Memphis Center
Thu 03:10:17 PM 36.7656 -87.3267 224° Southwest 123 142 1,500 -98 Descending Memphis Center
Thu 03:11:18 PM 36.7453 -87.3508 214° Southwest 99 114 1,500 50 Level Memphis Center
Thu 03:12:18 PM 36.7228 -87.3697 199° South 97 112 1,600 99 Climbing Memphis Center
Thu 03:13:19 PM 36.6961 -87.3811 208° Southwest 100 115 1,700  Climbing Memphis Center
Thu 03:14:25 PM 36.6672 -87.4003 220° Southwest 105 121 1,600 -198 Descending Memphis Center
Thu 03:15:20 PM 36.6492 -87.4189 182° South 108 124 1,300 -466 Descending Memphis Center
Thu 03:16:21 PM 36.6303 -87.4197 182° South 77 89 700 -590 Descending Memphis Center

Login

Don't have an account? Register now (free) for customized features, flight alerts, and more!